sensor_id;sensor_type;location;lat;lon;timestamp;P1;durP1;ratioP1;P2;durP2;ratioP2
11211;SDS011;5663;50.864;12.096;2023-02-24T00:02:15;22.37;;;16.97;;
11211;SDS011;5663;50.864;12.096;2023-02-24T00:04:44;22.00;;;16.07;;
11211;SDS011;5663;50.864;12.096;2023-02-24T00:07:17;21.93;;;15.83;;
11211;SDS011;5663;50.864;12.096;2023-02-24T00:09:45;21.97;;;15.97;;
11211;SDS011;5663;50.864;12.096;2023-02-24T00:12:14;20.70;;;15.03;;
11211;SDS011;5663;50.864;12.096;2023-02-24T00:14:42;21.67;;;15.27;;
11211;SDS011;5663;50.864;12.096;2023-02-24T00:17:11;22.10;;;15.60;;
11211;SDS011;5663;50.864;12.096;2023-02-24T00:19:42;22.70;;;15.60;;
11211;SDS011;5663;50.864;12.096;2023-02-24T00:22:13;21.33;;;15.27;;
11211;SDS011;5663;50.864;12.096;2023-02-24T00:24:40;18.93;;;14.37;;
11211;SDS011;5663;50.864;12.096;2023-02-24T00:27:08;19.83;;;14.87;;
11211;SDS011;5663;50.864;12.096;2023-02-24T00:29:36;21.17;;;14.00;;
11211;SDS011;5663;50.864;12.096;2023-02-24T00:32:05;18.03;;;14.10;;
11211;SDS011;5663;50.864;12.096;2023-02-24T00:34:37;17.43;;;12.67;;
11211;SDS011;5663;50.864;12.096;2023-02-24T00:37:06;20.20;;;13.80;;
11211;SDS011;5663;50.864;12.096;2023-02-24T00:39:34;19.33;;;13.67;;
11211;SDS011;5663;50.864;12.096;2023-02-24T00:42:06;16.67;;;12.40;;
11211;SDS011;5663;50.864;12.096;2023-02-24T00:44:34;20.37;;;14.13;;
11211;SDS011;5663;50.864;12.096;2023-02-24T00:47:04;19.50;;;13.50;;
11211;SDS011;5663;50.864;12.096;2023-02-24T00:49:33;18.93;;;13.53;;
11211;SDS011;5663;50.864;12.096;2023-02-24T00:52:09;17.80;;;13.43;;
11211;SDS011;5663;50.864;12.096;2023-02-24T00:54:39;21.00;;;14.10;;
11211;SDS011;5663;50.864;12.096;2023-02-24T00:57:07;19.13;;;13.67;;
11211;SDS011;5663;50.864;12.096;2023-02-24T00:59:36;20.57;;;14.33;;
11211;SDS011;5663;50.864;12.096;2023-02-24T01:02:04;19.63;;;14.00;;
11211;SDS011;5663;50.864;12.096;2023-02-24T01:04:32;20.53;;;13.77;;
11211;SDS011;5663;50.864;12.096;2023-02-24T01:07:02;21.33;;;14.40;;
11211;SDS011;5663;50.864;12.096;2023-02-24T01:09:37;21.33;;;14.83;;
11211;SDS011;5663;50.864;12.096;2023-02-24T01:12:06;18.60;;;14.00;;
11211;SDS011;5663;50.864;12.096;2023-02-24T01:14:52;19.33;;;13.53;;
11211;SDS011;5663;50.864;12.096;2023-02-24T01:17:21;19.67;;;13.80;;
11211;SDS011;5663;50.864;12.096;2023-02-24T01:19:50;21.40;;;15.30;;
11211;SDS011;5663;50.864;12.096;2023-02-24T01:22:18;21.57;;;14.60;;
11211;SDS011;5663;50.864;12.096;2023-02-24T01:24:49;19.90;;;14.27;;
11211;SDS011;5663;50.864;12.096;2023-02-24T01:27:16;22.03;;;15.93;;
11211;SDS011;5663;50.864;12.096;2023-02-24T01:29:45;24.23;;;15.70;;
11211;SDS011;5663;50.864;12.096;2023-02-24T01:32:14;23.50;;;17.07;;
11211;SDS011;5663;50.864;12.096;2023-02-24T01:34:43;22.20;;;16.53;;
11211;SDS011;5663;50.864;12.096;2023-02-24T01:37:11;24.17;;;17.37;;
11211;SDS011;5663;50.864;12.096;2023-02-24T01:39:41;25.67;;;18.00;;
11211;SDS011;5663;50.864;12.096;2023-02-24T01:42:13;23.90;;;16.43;;
11211;SDS011;5663;50.864;12.096;2023-02-24T01:48:07;26.00;;;17.03;;
11211;SDS011;5663;50.864;12.096;2023-02-24T01:50:36;23.70;;;16.57;;
11211;SDS011;5663;50.864;12.096;2023-02-24T01:53:05;22.40;;;14.33;;
11211;SDS011;5663;50.864;12.096;2023-02-24T01:55:35;21.67;;;15.27;;
11211;SDS011;5663;50.864;12.096;2023-02-24T01:58:10;21.33;;;14.73;;
11211;SDS011;5663;50.864;12.096;2023-02-24T02:00:42;18.10;;;12.93;;
11211;SDS011;5663;50.864;12.096;2023-02-24T02:03:14;20.73;;;13.80;;
11211;SDS011;5663;50.864;12.096;2023-02-24T02:05:49;20.97;;;14.27;;
11211;SDS011;5663;50.864;12.096;2023-02-24T02:08:18;20.50;;;14.27;;
11211;SDS011;5663;50.864;12.096;2023-02-24T02:10:50;20.07;;;12.13;;
11211;SDS011;5663;50.864;12.096;2023-02-24T02:13:26;17.43;;;12.47;;
11211;SDS011;5663;50.864;12.096;2023-02-24T02:15:59;16.77;;;11.77;;
11211;SDS011;5663;50.864;12.096;2023-02-24T02:18:38;18.27;;;12.70;;
11211;SDS011;5663;50.864;12.096;2023-02-24T02:21:19;18.93;;;12.63;;
11211;SDS011;5663;50.864;12.096;2023-02-24T02:24:30;17.53;;;12.50;;
11211;SDS011;5663;50.864;12.096;2023-02-24T02:30:26;13.43;;;10.23;;
11211;SDS011;5663;50.864;12.096;2023-02-24T02:33:19;13.60;;;9.83;;
11211;SDS011;5663;50.864;12.096;2023-02-24T02:36:11;14.13;;;9.47;;
11211;SDS011;5663;50.864;12.096;2023-02-24T02:38:45;15.30;;;9.70;;
11211;SDS011;5663;50.864;12.096;2023-02-24T02:41:21;14.80;;;10.17;;
11211;SDS011;5663;50.864;12.096;2023-02-24T02:43:55;15.37;;;10.00;;
11211;SDS011;5663;50.864;12.096;2023-02-24T02:46:30;13.23;;;9.60;;
11211;SDS011;5663;50.864;12.096;2023-02-24T02:49:02;12.67;;;8.23;;
11211;SDS011;5663;50.864;12.096;2023-02-24T02:51:37;14.37;;;8.63;;
11211;SDS011;5663;50.864;12.096;2023-02-24T02:54:11;12.17;;;7.67;;
11211;SDS011;5663;50.864;12.096;2023-02-24T02:56:45;12.40;;;7.90;;
11211;SDS011;5663;50.864;12.096;2023-02-24T02:59:19;13.23;;;7.40;;
11211;SDS011;5663;50.864;12.096;2023-02-24T03:01:50;11.70;;;7.60;;
11211;SDS011;5663;50.864;12.096;2023-02-24T03:04:25;11.43;;;7.80;;
11211;SDS011;5663;50.864;12.096;2023-02-24T03:06:58;13.57;;;8.13;;
11211;SDS011;5663;50.864;12.096;2023-02-24T03:09:29;13.40;;;7.80;;
11211;SDS011;5663;50.864;12.096;2023-02-24T03:12:03;14.13;;;9.20;;
11211;SDS011;5663;50.864;12.096;2023-02-24T03:14:34;14.70;;;8.63;;
11211;SDS011;5663;50.864;12.096;2023-02-24T03:17:06;15.63;;;9.03;;
11211;SDS011;5663;50.864;12.096;2023-02-24T03:19:38;16.03;;;9.77;;
11211;SDS011;5663;50.864;12.096;2023-02-24T03:22:10;18.17;;;9.40;;
11211;SDS011;5663;50.864;12.096;2023-02-24T03:24:42;13.30;;;8.57;;
11211;SDS011;5663;50.864;12.096;2023-02-24T03:27:12;21.07;;;9.20;;
11211;SDS011;5663;50.864;12.096;2023-02-24T03:29:45;15.27;;;9.13;;
11211;SDS011;5663;50.864;12.096;2023-02-24T03:32:19;18.30;;;9.77;;
11211;SDS011;5663;50.864;12.096;2023-02-24T03:34:52;13.27;;;8.57;;
11211;SDS011;5663;50.864;12.096;2023-02-24T03:37:25;17.93;;;9.83;;
11211;SDS011;5663;50.864;12.096;2023-02-24T03:39:55;13.97;;;9.07;;
11211;SDS011;5663;50.864;12.096;2023-02-24T03:42:25;14.63;;;9.30;;
11211;SDS011;5663;50.864;12.096;2023-02-24T03:44:58;16.90;;;8.87;;
11211;SDS011;5663;50.864;12.096;2023-02-24T03:47:26;15.93;;;9.67;;
11211;SDS011;5663;50.864;12.096;2023-02-24T03:49:54;14.40;;;9.03;;
11211;SDS011;5663;50.864;12.096;2023-02-24T03:52:26;15.53;;;9.17;;
11211;SDS011;5663;50.864;12.096;2023-02-24T03:55:09;13.27;;;8.53;;
11211;SDS011;5663;50.864;12.096;2023-02-24T03:57:46;15.60;;;8.70;;
11211;SDS011;5663;50.864;12.096;2023-02-24T04:00:27;15.70;;;9.10;;
11211;SDS011;5663;50.864;12.096;2023-02-24T04:03:04;16.90;;;8.73;;
11211;SDS011;5663;50.864;12.096;2023-02-24T04:05:39;11.57;;;7.63;;
11211;SDS011;5663;50.864;12.096;2023-02-24T04:08:14;13.23;;;7.90;;
11211;SDS011;5663;50.864;12.096;2023-02-24T04:10:47;13.30;;;8.40;;
11211;SDS011;5663;50.864;12.096;2023-02-24T04:13:21;13.67;;;7.90;;
11211;SDS011;5663;50.864;12.096;2023-02-24T04:16:00;12.43;;;7.43;;
11211;SDS011;5663;50.864;12.096;2023-02-24T04:18:35;13.07;;;8.17;;
11211;SDS011;5663;50.864;12.096;2023-02-24T04:21:03;13.10;;;8.53;;
11211;SDS011;5663;50.864;12.096;2023-02-24T04:23:34;14.33;;;8.77;;
11211;SDS011;5663;50.864;12.096;2023-02-24T04:26:06;11.43;;;7.90;;
11211;SDS011;5663;50.864;12.096;2023-02-24T04:28:38;13.57;;;7.97;;
11211;SDS011;5663;50.864;12.096;2023-02-24T04:31:08;14.90;;;8.60;;
11211;SDS011;5663;50.864;12.096;2023-02-24T04:33:43;11.90;;;7.63;;
11211;SDS011;5663;50.864;12.096;2023-02-24T04:36:15;13.97;;;8.60;;
11211;SDS011;5663;50.864;12.096;2023-02-24T04:41:48;11.50;;;7.40;;
11211;SDS011;5663;50.864;12.096;2023-02-24T04:44:15;11.00;;;7.30;;
11211;SDS011;5663;50.864;12.096;2023-02-24T04:46:44;13.03;;;8.20;;
11211;SDS011;5663;50.864;12.096;2023-02-24T04:49:12;11.30;;;7.03;;
11211;SDS011;5663;50.864;12.096;2023-02-24T04:51:40;14.13;;;8.60;;
11211;SDS011;5663;50.864;12.096;2023-02-24T04:54:09;13.67;;;8.27;;
11211;SDS011;5663;50.864;12.096;2023-02-24T04:56:42;13.27;;;8.27;;
11211;SDS011;5663;50.864;12.096;2023-02-24T04:59:12;16.13;;;9.57;;
11211;SDS011;5663;50.864;12.096;2023-02-24T05:01:41;12.93;;;8.67;;
11211;SDS011;5663;50.864;12.096;2023-02-24T05:04:09;14.77;;;8.67;;
11211;SDS011;5663;50.864;12.096;2023-02-24T05:06:39;13.30;;;8.20;;
11211;SDS011;5663;50.864;12.096;2023-02-24T05:09:10;17.93;;;10.70;;
11211;SDS011;5663;50.864;12.096;2023-02-24T05:11:41;16.43;;;10.20;;
11211;SDS011;5663;50.864;12.096;2023-02-24T05:14:11;17.00;;;9.80;;
11211;SDS011;5663;50.864;12.096;2023-02-24T05:16:41;15.03;;;9.67;;
11211;SDS011;5663;50.864;12.096;2023-02-24T05:19:11;12.87;;;8.67;;
11211;SDS011;5663;50.864;12.096;2023-02-24T05:21:53;18.77;;;10.33;;
11211;SDS011;5663;50.864;12.096;2023-02-24T05:24:24;16.80;;;9.77;;
11211;SDS011;5663;50.864;12.096;2023-02-24T05:26:53;17.47;;;9.33;;
11211;SDS011;5663;50.864;12.096;2023-02-24T05:29:24;16.00;;;10.10;;
11211;SDS011;5663;50.864;12.096;2023-02-24T05:31:52;20.17;;;11.00;;
11211;SDS011;5663;50.864;12.096;2023-02-24T05:34:24;20.20;;;11.93;;
11211;SDS011;5663;50.864;12.096;2023-02-24T05:36:53;21.40;;;12.80;;
11211;SDS011;5663;50.864;12.096;2023-02-24T05:39:21;22.30;;;13.10;;
11211;SDS011;5663;50.864;12.096;2023-02-24T05:41:53;21.53;;;12.97;;
11211;SDS011;5663;50.864;12.096;2023-02-24T05:44:22;22.80;;;12.87;;
11211;SDS011;5663;50.864;12.096;2023-02-24T05:46:52;26.43;;;13.93;;
11211;SDS011;5663;50.864;12.096;2023-02-24T05:49:23;29.57;;;14.63;;
11211;SDS011;5663;50.864;12.096;2023-02-24T05:51:54;31.10;;;15.90;;
11211;SDS011;5663;50.864;12.096;2023-02-24T05:54:26;26.93;;;14.80;;
11211;SDS011;5663;50.864;12.096;2023-02-24T05:56:58;29.37;;;15.33;;
11211;SDS011;5663;50.864;12.096;2023-02-24T05:59:27;29.90;;;14.90;;
11211;SDS011;5663;50.864;12.096;2023-02-24T06:01:58;29.53;;;14.90;;
11211;SDS011;5663;50.864;12.096;2023-02-24T06:04:31;29.20;;;13.93;;
11211;SDS011;5663;50.864;12.096;2023-02-24T06:07:06;29.43;;;14.13;;
11211;SDS011;5663;50.864;12.096;2023-02-24T06:09:39;31.73;;;15.70;;
11211;SDS011;5663;50.864;12.096;2023-02-24T06:12:09;38.07;;;16.17;;
11211;SDS011;5663;50.864;12.096;2023-02-24T06:14:39;32.60;;;16.17;;
11211;SDS011;5663;50.864;12.096;2023-02-24T06:17:07;32.83;;;16.07;;
11211;SDS011;5663;50.864;12.096;2023-02-24T06:19:35;32.10;;;16.67;;
11211;SDS011;5663;50.864;12.096;2023-02-24T06:22:03;43.37;;;18.73;;
11211;SDS011;5663;50.864;12.096;2023-02-24T06:24:35;26.53;;;14.90;;
11211;SDS011;5663;50.864;12.096;2023-02-24T06:27:04;42.33;;;18.67;;
11211;SDS011;5663;50.864;12.096;2023-02-24T06:29:36;36.60;;;18.10;;
11211;SDS011;5663;50.864;12.096;2023-02-24T06:32:04;39.63;;;19.67;;
11211;SDS011;5663;50.864;12.096;2023-02-24T06:34:33;33.70;;;17.63;;
11211;SDS011;5663;50.864;12.096;2023-02-24T06:37:01;35.87;;;17.27;;
11211;SDS011;5663;50.864;12.096;2023-02-24T06:39:29;38.70;;;18.57;;
11211;SDS011;5663;50.864;12.096;2023-02-24T06:41:57;40.13;;;19.70;;
11211;SDS011;5663;50.864;12.096;2023-02-24T06:44:35;32.57;;;17.00;;
11211;SDS011;5663;50.864;12.096;2023-02-24T06:47:36;31.73;;;17.37;;
11211;SDS011;5663;50.864;12.096;2023-02-24T06:50:04;35.73;;;18.97;;
11211;SDS011;5663;50.864;12.096;2023-02-24T06:52:43;35.60;;;18.27;;
11211;SDS011;5663;50.864;12.096;2023-02-24T06:55:31;36.53;;;17.63;;
11211;SDS011;5663;50.864;12.096;2023-02-24T06:58:01;30.83;;;17.57;;
11211;SDS011;5663;50.864;12.096;2023-02-24T07:00:32;27.83;;;15.47;;
11211;SDS011;5663;50.864;12.096;2023-02-24T07:03:04;28.60;;;15.77;;
11211;SDS011;5663;50.864;12.096;2023-02-24T07:05:44;24.80;;;15.57;;
11211;SDS011;5663;50.864;12.096;2023-02-24T07:08:16;25.17;;;14.73;;
11211;SDS011;5663;50.864;12.096;2023-02-24T07:10:50;29.30;;;16.13;;
11211;SDS011;5663;50.864;12.096;2023-02-24T07:13:19;33.30;;;16.80;;
11211;SDS011;5663;50.864;12.096;2023-02-24T07:15:49;28.03;;;15.37;;
11211;SDS011;5663;50.864;12.096;2023-02-24T07:18:17;27.67;;;15.77;;
11211;SDS011;5663;50.864;12.096;2023-02-24T07:20:45;29.30;;;15.97;;
11211;SDS011;5663;50.864;12.096;2023-02-24T07:23:13;29.03;;;15.60;;
11211;SDS011;5663;50.864;12.096;2023-02-24T07:25:42;23.37;;;13.30;;
11211;SDS011;5663;50.864;12.096;2023-02-24T07:28:11;32.00;;;14.80;;
11211;SDS011;5663;50.864;12.096;2023-02-24T07:30:39;29.43;;;15.57;;
11211;SDS011;5663;50.864;12.096;2023-02-24T07:33:09;30.63;;;15.10;;
11211;SDS011;5663;50.864;12.096;2023-02-24T07:35:38;28.03;;;14.80;;
11211;SDS011;5663;50.864;12.096;2023-02-24T07:38:07;29.07;;;15.77;;
11211;SDS011;5663;50.864;12.096;2023-02-24T07:40:34;27.13;;;15.13;;
11211;SDS011;5663;50.864;12.096;2023-02-24T07:43:03;27.70;;;14.00;;
11211;SDS011;5663;50.864;12.096;2023-02-24T07:45:31;22.67;;;12.90;;
11211;SDS011;5663;50.864;12.096;2023-02-24T07:47:59;25.80;;;14.33;;
11211;SDS011;5663;50.864;12.096;2023-02-24T07:50:28;22.90;;;12.57;;
11211;SDS011;5663;50.864;12.096;2023-02-24T07:52:57;22.10;;;12.40;;
11211;SDS011;5663;50.864;12.096;2023-02-24T07:55:28;25.40;;;12.77;;
11211;SDS011;5663;50.864;12.096;2023-02-24T07:57:56;23.53;;;13.40;;
11211;SDS011;5663;50.864;12.096;2023-02-24T08:00:26;24.20;;;12.87;;
11211;SDS011;5663;50.864;12.096;2023-02-24T08:02:55;21.03;;;12.60;;
11211;SDS011;5663;50.864;12.096;2023-02-24T08:05:24;24.63;;;12.90;;
11211;SDS011;5663;50.864;12.096;2023-02-24T08:07:54;21.80;;;12.03;;
11211;SDS011;5663;50.864;12.096;2023-02-24T08:10:21;21.07;;;12.23;;
11211;SDS011;5663;50.864;12.096;2023-02-24T08:12:52;24.17;;;13.10;;
11211;SDS011;5663;50.864;12.096;2023-02-24T08:15:21;24.70;;;13.50;;
11211;SDS011;5663;50.864;12.096;2023-02-24T08:17:51;24.93;;;14.20;;
11211;SDS011;5663;50.864;12.096;2023-02-24T08:20:25;20.20;;;12.07;;
11211;SDS011;5663;50.864;12.096;2023-02-24T08:22:55;22.37;;;11.87;;
11211;SDS011;5663;50.864;12.096;2023-02-24T08:25:24;20.50;;;12.07;;
11211;SDS011;5663;50.864;12.096;2023-02-24T08:28:01;22.33;;;11.00;;
11211;SDS011;5663;50.864;12.096;2023-02-24T08:30:30;19.70;;;11.13;;
11211;SDS011;5663;50.864;12.096;2023-02-24T08:33:03;24.13;;;10.90;;
11211;SDS011;5663;50.864;12.096;2023-02-24T08:35:33;15.97;;;9.50;;
11211;SDS011;5663;50.864;12.096;2023-02-24T08:38:05;21.20;;;10.17;;
11211;SDS011;5663;50.864;12.096;2023-02-24T08:40:36;27.70;;;11.63;;
11211;SDS011;5663;50.864;12.096;2023-02-24T08:43:26;17.80;;;10.83;;
11211;SDS011;5663;50.864;12.096;2023-02-24T08:46:01;19.43;;;10.73;;
11211;SDS011;5663;50.864;12.096;2023-02-24T08:48:38;22.07;;;11.30;;
11211;SDS011;5663;50.864;12.096;2023-02-24T08:51:09;18.37;;;10.20;;
11211;SDS011;5663;50.864;12.096;2023-02-24T08:53:41;18.63;;;10.77;;
11211;SDS011;5663;50.864;12.096;2023-02-24T08:56:11;21.07;;;11.17;;
11211;SDS011;5663;50.864;12.096;2023-02-24T08:58:49;20.40;;;10.97;;
11211;SDS011;5663;50.864;12.096;2023-02-24T09:01:23;20.30;;;10.63;;
11211;SDS011;5663;50.864;12.096;2023-02-24T09:03:57;18.47;;;10.33;;
11211;SDS011;5663;50.864;12.096;2023-02-24T09:06:32;15.63;;;9.03;;
11211;SDS011;5663;50.864;12.096;2023-02-24T09:09:12;16.93;;;9.17;;
11211;SDS011;5663;50.864;12.096;2023-02-24T09:11:48;16.70;;;7.40;;
11211;SDS011;5663;50.864;12.096;2023-02-24T09:14:23;11.80;;;6.90;;
11211;SDS011;5663;50.864;12.096;2023-02-24T09:20:23;11.40;;;5.17;;
11211;SDS011;5663;50.864;12.096;2023-02-24T09:23:46;9.13;;;5.40;;
11211;SDS011;5663;50.864;12.096;2023-02-24T09:26:20;9.17;;;5.00;;
11211;SDS011;5663;50.864;12.096;2023-02-24T09:35:57;8.73;;;4.10;;
11211;SDS011;5663;50.864;12.096;2023-02-24T09:39:45;7.90;;;4.67;;
11211;SDS011;5663;50.864;12.096;2023-02-24T09:43:09;5.97;;;4.13;;
11211;SDS011;5663;50.864;12.096;2023-02-24T09:45:59;12.20;;;5.30;;
11211;SDS011;5663;50.864;12.096;2023-02-24T09:48:54;8.60;;;5.33;;
11211;SDS011;5663;50.864;12.096;2023-02-24T10:03:13;12.00;;;7.30;;
11211;SDS011;5663;50.864;12.096;2023-02-24T10:06:27;10.73;;;6.33;;
11211;SDS011;5663;50.864;12.096;2023-02-24T10:09:43;14.03;;;6.27;;
11211;SDS011;5663;50.864;12.096;2023-02-24T10:12:22;11.63;;;6.43;;
11211;SDS011;5663;50.864;12.096;2023-02-24T10:15:13;12.07;;;7.23;;
11211;SDS011;5663;50.864;12.096;2023-02-24T10:18:20;10.17;;;6.13;;
11211;SDS011;5663;50.864;12.096;2023-02-24T10:21:13;11.10;;;6.13;;
11211;SDS011;5663;50.864;12.096;2023-02-24T10:24:21;9.87;;;6.27;;
11211;SDS011;5663;50.864;12.096;2023-02-24T10:27:02;9.10;;;5.37;;
11211;SDS011;5663;50.864;12.096;2023-02-24T10:29:58;10.30;;;5.83;;
11211;SDS011;5663;50.864;12.096;2023-02-24T10:32:53;10.53;;;5.93;;
11211;SDS011;5663;50.864;12.096;2023-02-24T10:35:59;11.00;;;6.47;;
11211;SDS011;5663;50.864;12.096;2023-02-24T10:38:46;9.43;;;5.23;;
11211;SDS011;5663;50.864;12.096;2023-02-24T10:41:54;11.30;;;5.97;;
11211;SDS011;5663;50.864;12.096;2023-02-24T10:45:10;10.13;;;6.17;;
11211;SDS011;5663;50.864;12.096;2023-02-24T10:47:58;9.13;;;4.80;;
11211;SDS011;5663;50.864;12.096;2023-02-24T10:53:47;9.30;;;5.10;;
11211;SDS011;5663;50.864;12.096;2023-02-24T10:56:41;6.80;;;4.97;;
11211;SDS011;5663;50.864;12.096;2023-02-24T10:59:53;6.60;;;4.90;;
11211;SDS011;5663;50.864;12.096;2023-02-24T11:03:05;9.50;;;5.10;;
11211;SDS011;5663;50.864;12.096;2023-02-24T11:05:40;5.73;;;4.23;;
11211;SDS011;5663;50.864;12.096;2023-02-24T11:08:27;6.43;;;4.57;;
11211;SDS011;5663;50.864;12.096;2023-02-24T11:11:33;6.90;;;4.33;;
11211;SDS011;5663;50.864;12.096;2023-02-24T11:14:31;6.40;;;4.37;;
11211;SDS011;5663;50.864;12.096;2023-02-24T11:17:33;7.27;;;4.93;;
11211;SDS011;5663;50.864;12.096;2023-02-24T11:23:57;6.77;;;4.30;;
11211;SDS011;5663;50.864;12.096;2023-02-24T11:26:34;6.53;;;4.50;;
11211;SDS011;5663;50.864;12.096;2023-02-24T11:29:19;6.83;;;5.10;;
11211;SDS011;5663;50.864;12.096;2023-02-24T11:32:03;5.93;;;4.50;;
11211;SDS011;5663;50.864;12.096;2023-02-24T11:34:51;6.87;;;4.80;;
11211;SDS011;5663;50.864;12.096;2023-02-24T11:37:53;7.10;;;4.80;;
11211;SDS011;5663;50.864;12.096;2023-02-24T11:40:36;5.60;;;4.33;;
11211;SDS011;5663;50.864;12.096;2023-02-24T11:43:09;6.93;;;4.67;;
11211;SDS011;5663;50.864;12.096;2023-02-24T11:45:46;6.40;;;4.37;;
11211;SDS011;5663;50.864;12.096;2023-02-24T11:48:30;7.83;;;4.93;;
11211;SDS011;5663;50.864;12.096;2023-02-24T11:51:05;6.60;;;4.30;;
11211;SDS011;5663;50.864;12.096;2023-02-24T11:53:41;7.57;;;4.77;;
11211;SDS011;5663;50.864;12.096;2023-02-24T11:56:17;6.73;;;4.60;;
11211;SDS011;5663;50.864;12.096;2023-02-24T11:58:57;6.27;;;4.30;;
11211;SDS011;5663;50.864;12.096;2023-02-24T12:01:30;6.93;;;4.60;;
11211;SDS011;5663;50.864;12.096;2023-02-24T12:04:04;5.43;;;4.10;;
11211;SDS011;5663;50.864;12.096;2023-02-24T12:06:40;7.43;;;4.23;;
11211;SDS011;5663;50.864;12.096;2023-02-24T12:09:16;5.73;;;4.03;;
11211;SDS011;5663;50.864;12.096;2023-02-24T12:11:51;8.87;;;4.30;;
11211;SDS011;5663;50.864;12.096;2023-02-24T12:14:28;5.43;;;4.10;;
11211;SDS011;5663;50.864;12.096;2023-02-24T12:17:02;6.40;;;4.00;;
11211;SDS011;5663;50.864;12.096;2023-02-24T12:19:42;6.30;;;4.10;;
11211;SDS011;5663;50.864;12.096;2023-02-24T12:22:32;5.77;;;4.50;;
11211;SDS011;5663;50.864;12.096;2023-02-24T12:25:13;7.10;;;3.97;;
11211;SDS011;5663;50.864;12.096;2023-02-24T12:27:50;5.80;;;4.27;;
11211;SDS011;5663;50.864;12.096;2023-02-24T12:30:36;5.27;;;4.00;;
11211;SDS011;5663;50.864;12.096;2023-02-24T12:33:25;5.13;;;4.10;;
11211;SDS011;5663;50.864;12.096;2023-02-24T12:36:02;6.67;;;4.20;;
11211;SDS011;5663;50.864;12.096;2023-02-24T12:38:49;6.93;;;4.30;;
11211;SDS011;5663;50.864;12.096;2023-02-24T12:44:40;6.77;;;4.70;;
11211;SDS011;5663;50.864;12.096;2023-02-24T12:47:15;6.27;;;4.47;;
11211;SDS011;5663;50.864;12.096;2023-02-24T12:52:46;6.63;;;4.33;;
11211;SDS011;5663;50.864;12.096;2023-02-24T12:55:28;7.50;;;4.60;;
11211;SDS011;5663;50.864;12.096;2023-02-24T12:58:05;6.43;;;4.63;;
11211;SDS011;5663;50.864;12.096;2023-02-24T13:00:41;8.00;;;4.80;;
11211;SDS011;5663;50.864;12.096;2023-02-24T13:03:22;10.77;;;4.80;;
11211;SDS011;5663;50.864;12.096;2023-02-24T13:05:58;6.10;;;4.47;;
11211;SDS011;5663;50.864;12.096;2023-02-24T13:08:36;6.60;;;4.37;;
11211;SDS011;5663;50.864;12.096;2023-02-24T13:11:12;9.37;;;4.70;;
11211;SDS011;5663;50.864;12.096;2023-02-24T13:13:54;7.43;;;4.40;;
11211;SDS011;5663;50.864;12.096;2023-02-24T13:16:30;6.53;;;4.40;;
11211;SDS011;5663;50.864;12.096;2023-02-24T13:19:04;6.33;;;4.60;;
11211;SDS011;5663;50.864;12.096;2023-02-24T13:21:33;5.90;;;4.13;;
11211;SDS011;5663;50.864;12.096;2023-02-24T13:24:02;6.40;;;4.73;;
11211;SDS011;5663;50.864;12.096;2023-02-24T13:26:30;5.70;;;4.20;;
11211;SDS011;5663;50.864;12.096;2023-02-24T13:29:00;6.00;;;4.10;;
11211;SDS011;5663;50.864;12.096;2023-02-24T13:31:39;5.43;;;4.07;;
11211;SDS011;5663;50.864;12.096;2023-02-24T13:34:12;7.23;;;4.23;;
11211;SDS011;5663;50.864;12.096;2023-02-24T13:36:45;7.17;;;4.40;;
11211;SDS011;5663;50.864;12.096;2023-02-24T13:39:22;6.07;;;4.60;;
11211;SDS011;5663;50.864;12.096;2023-02-24T13:42:01;8.70;;;4.73;;
11211;SDS011;5663;50.864;12.096;2023-02-24T13:44:32;7.17;;;4.67;;
11211;SDS011;5663;50.864;12.096;2023-02-24T13:47:06;8.53;;;4.97;;
11211;SDS011;5663;50.864;12.096;2023-02-24T13:49:53;7.20;;;4.70;;
11211;SDS011;5663;50.864;12.096;2023-02-24T13:52:38;9.00;;;4.83;;
11211;SDS011;5663;50.864;12.096;2023-02-24T13:58:27;7.33;;;5.10;;
11211;SDS011;5663;50.864;12.096;2023-02-24T14:01:09;8.73;;;5.60;;
11211;SDS011;5663;50.864;12.096;2023-02-24T14:03:39;7.60;;;5.27;;
11211;SDS011;5663;50.864;12.096;2023-02-24T14:06:13;7.70;;;4.90;;
11211;SDS011;5663;50.864;12.096;2023-02-24T14:08:46;7.83;;;5.03;;
11211;SDS011;5663;50.864;12.096;2023-02-24T14:11:18;9.20;;;5.83;;
11211;SDS011;5663;50.864;12.096;2023-02-24T14:13:52;10.10;;;5.90;;
11211;SDS011;5663;50.864;12.096;2023-02-24T14:16:24;7.70;;;5.40;;
11211;SDS011;5663;50.864;12.096;2023-02-24T14:18:55;9.60;;;5.80;;
11211;SDS011;5663;50.864;12.096;2023-02-24T14:21:25;7.67;;;4.80;;
11211;SDS011;5663;50.864;12.096;2023-02-24T14:23:56;7.63;;;4.80;;
11211;SDS011;5663;50.864;12.096;2023-02-24T14:26:26;9.07;;;5.20;;
11211;SDS011;5663;50.864;12.096;2023-02-24T14:28:57;8.90;;;5.47;;
11211;SDS011;5663;50.864;12.096;2023-02-24T14:31:28;6.63;;;4.70;;
11211;SDS011;5663;50.864;12.096;2023-02-24T14:33:56;7.23;;;4.93;;
11211;SDS011;5663;50.864;12.096;2023-02-24T14:36:26;7.03;;;4.90;;
11211;SDS011;5663;50.864;12.096;2023-02-24T14:39:00;9.47;;;5.20;;
11211;SDS011;5663;50.864;12.096;2023-02-24T14:41:34;8.10;;;5.10;;
11211;SDS011;5663;50.864;12.096;2023-02-24T14:44:06;6.77;;;4.60;;
11211;SDS011;5663;50.864;12.096;2023-02-24T14:46:49;7.10;;;4.57;;
11211;SDS011;5663;50.864;12.096;2023-02-24T14:49:22;9.27;;;4.47;;
11211;SDS011;5663;50.864;12.096;2023-02-24T14:51:52;7.27;;;4.77;;
11211;SDS011;5663;50.864;12.096;2023-02-24T14:54:31;6.83;;;4.93;;
11211;SDS011;5663;50.864;12.096;2023-02-24T14:57:05;7.13;;;4.13;;
11211;SDS011;5663;50.864;12.096;2023-02-24T14:59:38;9.73;;;5.20;;
11211;SDS011;5663;50.864;12.096;2023-02-24T15:02:13;6.40;;;4.63;;
11211;SDS011;5663;50.864;12.096;2023-02-24T15:04:43;7.63;;;4.70;;
11211;SDS011;5663;50.864;12.096;2023-02-24T15:07:14;6.97;;;4.37;;
11211;SDS011;5663;50.864;12.096;2023-02-24T15:09:44;6.40;;;4.20;;
11211;SDS011;5663;50.864;12.096;2023-02-24T15:12:18;10.23;;;4.03;;
11211;SDS011;5663;50.864;12.096;2023-02-24T15:14:49;5.73;;;4.17;;
11211;SDS011;5663;50.864;12.096;2023-02-24T15:17:21;5.63;;;4.23;;
11211;SDS011;5663;50.864;12.096;2023-02-24T15:19:50;6.40;;;4.20;;
11211;SDS011;5663;50.864;12.096;2023-02-24T15:22:22;6.20;;;4.27;;
11211;SDS011;5663;50.864;12.096;2023-02-24T15:24:53;8.17;;;4.93;;
11211;SDS011;5663;50.864;12.096;2023-02-24T15:27:26;7.23;;;4.40;;
11211;SDS011;5663;50.864;12.096;2023-02-24T15:29:57;6.87;;;4.80;;
11211;SDS011;5663;50.864;12.096;2023-02-24T15:32:35;9.83;;;4.90;;
11211;SDS011;5663;50.864;12.096;2023-02-24T15:35:05;6.83;;;4.63;;
11211;SDS011;5663;50.864;12.096;2023-02-24T15:37:49;9.93;;;5.40;;
11211;SDS011;5663;50.864;12.096;2023-02-24T15:40:21;7.97;;;5.07;;
11211;SDS011;5663;50.864;12.096;2023-02-24T15:42:53;5.47;;;4.10;;
11211;SDS011;5663;50.864;12.096;2023-02-24T15:45:23;6.73;;;5.03;;
11211;SDS011;5663;50.864;12.096;2023-02-24T15:48:02;8.27;;;5.30;;
11211;SDS011;5663;50.864;12.096;2023-02-24T15:50:55;7.67;;;5.00;;
11211;SDS011;5663;50.864;12.096;2023-02-24T15:53:31;6.13;;;4.23;;
11211;SDS011;5663;50.864;12.096;2023-02-24T15:56:01;8.17;;;4.77;;
11211;SDS011;5663;50.864;12.096;2023-02-24T15:58:32;7.57;;;4.87;;
11211;SDS011;5663;50.864;12.096;2023-02-24T16:01:04;10.37;;;5.10;;
11211;SDS011;5663;50.864;12.096;2023-02-24T16:03:42;9.40;;;5.33;;
11211;SDS011;5663;50.864;12.096;2023-02-24T16:06:13;9.67;;;5.20;;
11211;SDS011;5663;50.864;12.096;2023-02-24T16:08:46;8.47;;;4.97;;
11211;SDS011;5663;50.864;12.096;2023-02-24T16:11:16;7.87;;;5.37;;